Long Beach, CA (90804)

8:09 AM PDT on August 20, 2014 (GMT -0700)
Belmont Heights | Change Station
CLOSE
Current Station
Personal Weather Station
Location: Long Beach, CA
Elevation: 62 ft
Nearby Weather Stations

Elev 62 ft 33.77 °N, 118.15 °W | Updated 3 seconds ago

Clear
Clear
69.8 °F
Feels Like 69.8 °F
N
0.9
Wind Variable Wind from ESE
Gusts 4.9 mph

Today
High -- | Low -- °F
--% Chance of Precip.
Yesterday
High -- | Low -- °F
Precip. -- in
6:18 AM 7:33 PM
Waning Crescent, 21% visible
Pressure 29.92 in
Visibility 10.0 miles
Clouds Clear
Dew Point 62 °F
Humidity 75%
Rainfall 0.00 in
Snow Depth Not available.
UV 1.2 out of 12
Pollen 5.60 out of 12
Ozone Good
Flu Activity Not available.
SPECI KLGB 201500Z 00000KT 10SM CLR 22/16 A2992 RMK AO2

More Conditions Fewer Conditions

Pressure 29.92 in
Visibility 10.0 miles
Clouds Clear
Dew Point 62 °F
Humidity 75%
Rainfall 0.00 in
Snow Depth Not available.
UV 1.2 out of 12
Pollen 5.60 out of 12
Ozone Good
Flu Activity Not available.
SPECI KLGB 201500Z 00000KT 10SM CLR 22/16 A2992 RMK AO2

More Conditions Fewer Conditions

10-Day Weather Forecast

Almanac

Astronomy

Aug. 20, 2014 Rise Set
Actual Time 6:18 AM PDT 7:33 PM PDT
Civil Twilight 5:52 AM PDT 7:59 PM PDT
Nautical Twilight 5:20 AM PDT 8:30 PM PDT
Astronomical Twilight 4:48 AM PDT 9:02 PM PDT
Moon 2:06 AM PDT 4:16 PM PDT
Length of Visible Light 14h 07m
Length of Day
13h 15m
Tomorrow will be 1m 54s shorter.
Waning Crescent, 21% of the Moon is Illuminated
Today
Waning Crescent
Aug 25
New
Sep 2
First Quarter
Sep 8
Full
Sep 15
Last Quarter

Today's Extremes

State Highs State Lows

Community

WunderPhotos

Upload Photos

1,745,661 photos uploaded!

Nearby

Air Quality

  Air Quality AQ Index Pollutant
Yesterday Good
OZONE
Current Good
OZONE
Wednesday Good
PM10
Wednesday Good
OZONE
Wednesday Good
CO
Wednesday Good
NO2

Snow Depth

Station Depth Elevation
Leavitt Lake 0 in 9400 ft
Sonora Pass 0 in 8800 ft
Leavitt Meadows 1 in 7200 ft
Summit Meadow 0 in 9122 ft
Ebbetts Pass 0 in 8700 ft

Earthquake Activity

City Distance Mag. Time & Date
Malibu Beach, California 35 miles 3.4 10:03 AM PDT
2014-08-15
Yucca Valley, California 104 miles 3.8 8:57 PM PDT
2014-08-14
Ojai, California 77 miles 2.6 8:43 PM PDT
2014-08-13
Minimum magnitude displayed is 2.5.

Coastal Water Temperatures

Place Temperature
Santa Monica Pier 69.1 °F
Los Angeles, CA 66.9 °F
La Jolla, CA 66.9 °F

Nearby Weather Stations